sensor_id;sensor_type;location;lat;lon;timestamp;pressure;altitude;pressure_sealevel;temperature;humidity
5872;BME280;2962;51.312;7.378;2022-07-10T00:01:25;98445.75;;;11.49;100.00
5872;BME280;2962;51.312;7.378;2022-07-10T00:03:51;98442.56;;;11.47;100.00
5872;BME280;2962;51.312;7.378;2022-07-10T00:06:16;98447.66;;;11.49;100.00
5872;BME280;2962;51.312;7.378;2022-07-10T00:08:42;98440.59;;;11.32;100.00
5872;BME280;2962;51.312;7.378;2022-07-10T00:11:11;98438.75;;;11.36;100.00
5872;BME280;2962;51.312;7.378;2022-07-10T00:13:36;98436.81;;;11.37;100.00
5872;BME280;2962;51.312;7.378;2022-07-10T00:16:01;98433.28;;;11.36;100.00
5872;BME280;2962;51.312;7.378;2022-07-10T00:18:28;98437.50;;;11.34;100.00
5872;BME280;2962;51.312;7.378;2022-07-10T00:20:53;98434.09;;;11.37;100.00
5872;BME280;2962;51.312;7.378;2022-07-10T00:23:19;98435.03;;;11.29;100.00
5872;BME280;2962;51.312;7.378;2022-07-10T00:25:44;98433.19;;;11.33;100.00
5872;BME280;2962;51.312;7.378;2022-07-10T00:28:09;98434.09;;;11.37;100.00
5872;BME280;2962;51.312;7.378;2022-07-10T00:30:36;98437.50;;;11.34;100.00
5872;BME280;2962;51.312;7.378;2022-07-10T00:33:01;98431.91;;;11.42;100.00
5872;BME280;2962;51.312;7.378;2022-07-10T00:35:27;98436.72;;;11.33;100.00
5872;BME280;2962;51.312;7.378;2022-07-10T00:37:52;98446.16;;;11.36;100.00
5872;BME280;2962;51.312;7.378;2022-07-10T00:40:17;98435.69;;;11.38;100.00
5872;BME280;2962;51.312;7.378;2022-07-10T00:42:43;98450.03;;;11.35;100.00
5872;BME280;2962;51.312;7.378;2022-07-10T00:45:08;98433.56;;;11.31;100.00
5872;BME280;2962;51.312;7.378;2022-07-10T00:47:34;98442.56;;;11.47;100.00
5872;BME280;2962;51.312;7.378;2022-07-10T00:49:59;98436.13;;;11.40;100.00
5872;BME280;2962;51.312;7.378;2022-07-10T00:52:25;98432.00;;;11.46;100.00
5872;BME280;2962;51.312;7.378;2022-07-10T00:54:50;98421.59;;;11.36;100.00
5872;BME280;2962;51.312;7.378;2022-07-10T00:57:16;98420.16;;;11.26;100.00
5872;BME280;2962;51.312;7.378;2022-07-10T00:59:43;98422.88;;;11.26;100.00
5872;BME280;2962;51.312;7.378;2022-07-10T01:02:09;98425.53;;;11.22;100.00
5872;BME280;2962;51.312;7.378;2022-07-10T01:04:35;98421.66;;;11.23;100.00
5872;BME280;2962;51.312;7.378;2022-07-10T01:07:00;98415.75;;;11.21;100.00
5872;BME280;2962;51.312;7.378;2022-07-10T01:09:26;98410.19;;;11.18;100.00
5872;BME280;2962;51.312;7.378;2022-07-10T01:11:55;98412.03;;;11.14;100.00
5872;BME280;2962;51.312;7.378;2022-07-10T01:14:21;98417.53;;;11.30;100.00
5872;BME280;2962;51.312;7.378;2022-07-10T01:16:46;98406.97;;;11.28;100.00
5872;BME280;2962;51.312;7.378;2022-07-10T01:19:12;98421.41;;;11.29;100.00
5872;BME280;2962;51.312;7.378;2022-07-10T01:21:37;98414.09;;;11.33;100.00
5872;BME280;2962;51.312;7.378;2022-07-10T01:24:09;98412.34;;;11.40;100.00
5872;BME280;2962;51.312;7.378;2022-07-10T01:26:36;98406.47;;;11.38;100.00
5872;BME280;2962;51.312;7.378;2022-07-10T01:29:04;98397.50;;;11.38;100.00
5872;BME280;2962;51.312;7.378;2022-07-10T01:31:30;98406.19;;;11.43;100.00
5872;BME280;2962;51.312;7.378;2022-07-10T01:33:55;98402.03;;;11.34;100.00
5872;BME280;2962;51.312;7.378;2022-07-10T01:36:21;98398.31;;;11.26;100.00
5872;BME280;2962;51.312;7.378;2022-07-10T01:38:47;98396.50;;;11.30;100.00
5872;BME280;2962;51.312;7.378;2022-07-10T01:41:13;98401.00;;;11.38;100.00
5872;BME280;2962;51.312;7.378;2022-07-10T01:43:38;98404.06;;;11.37;100.00
5872;BME280;2962;51.312;7.378;2022-07-10T01:46:08;98405.41;;;11.43;100.00
5872;BME280;2962;51.312;7.378;2022-07-10T01:48:36;98388.94;;;11.39;100.00
5872;BME280;2962;51.312;7.378;2022-07-10T01:51:02;98393.16;;;11.37;100.00
5872;BME280;2962;51.312;7.378;2022-07-10T01:53:27;98387.63;;;11.49;100.00
5872;BME280;2962;51.312;7.378;2022-07-10T01:55:53;98393.25;;;11.40;100.00
5872;BME280;2962;51.312;7.378;2022-07-10T01:58:18;98392.38;;;11.36;100.00
5872;BME280;2962;51.312;7.378;2022-07-10T02:00:43;98397.03;;;11.36;100.00
5872;BME280;2962;51.312;7.378;2022-07-10T02:03:10;98391.94;;;11.34;100.00
5872;BME280;2962;51.312;7.378;2022-07-10T02:05:53;98390.25;;;11.30;100.00
5872;BME280;2962;51.312;7.378;2022-07-10T02:08:19;98384.06;;;11.17;100.00
5872;BME280;2962;51.312;7.378;2022-07-10T02:10:44;98378.22;;;11.31;100.00
5872;BME280;2962;51.312;7.378;2022-07-10T02:13:10;98368.31;;;11.26;100.00
5872;BME280;2962;51.312;7.378;2022-07-10T02:15:35;98368.00;;;11.28;100.00
5872;BME280;2962;51.312;7.378;2022-07-10T02:18:00;98366.06;;;11.28;100.00
5872;BME280;2962;51.312;7.378;2022-07-10T02:20:26;98363.31;;;11.28;100.00
5872;BME280;2962;51.312;7.378;2022-07-10T02:22:51;98373.97;;;11.33;100.00
5872;BME280;2962;51.312;7.378;2022-07-10T02:25:16;98368.88;;;11.32;100.00
5872;BME280;2962;51.312;7.378;2022-07-10T02:27:42;98364.09;;;11.29;100.00
5872;BME280;2962;51.312;7.378;2022-07-10T02:30:07;98374.59;;;11.27;100.00
5872;BME280;2962;51.312;7.378;2022-07-10T02:32:33;98362.16;;;11.29;100.00
5872;BME280;2962;51.312;7.378;2022-07-10T02:34:58;98357.41;;;11.26;100.00
5872;BME280;2962;51.312;7.378;2022-07-10T02:37:23;98366.06;;;11.28;100.00
5872;BME280;2962;51.312;7.378;2022-07-10T02:39:48;98363.59;;;11.23;100.00
5872;BME280;2962;51.312;7.378;2022-07-10T02:42:14;98361.34;;;11.13;100.00
5872;BME280;2962;51.312;7.378;2022-07-10T02:44:39;98349.97;;;10.95;100.00
5872;BME280;2962;51.312;7.378;2022-07-10T02:47:04;98363.09;;;11.05;100.00
5872;BME280;2962;51.312;7.378;2022-07-10T02:49:29;98347.44;;;11.02;100.00
5872;BME280;2962;51.312;7.378;2022-07-10T02:51:55;98360.56;;;11.12;100.00
5872;BME280;2962;51.312;7.378;2022-07-10T02:54:20;98362.47;;;10.96;100.00
5872;BME280;2962;51.312;7.378;2022-07-10T02:56:45;98352.75;;;10.83;100.00
5872;BME280;2962;51.312;7.378;2022-07-10T02:59:10;98361.59;;;10.92;100.00
5872;BME280;2962;51.312;7.378;2022-07-10T03:01:36;98367.84;;;10.92;100.00
5872;BME280;2962;51.312;7.378;2022-07-10T03:04:01;98364.22;;;10.88;100.00
5872;BME280;2962;51.312;7.378;2022-07-10T03:06:27;98363.16;;;10.93;100.00
5872;BME280;2962;51.312;7.378;2022-07-10T03:08:53;98367.03;;;10.92;100.00
5872;BME280;2962;51.312;7.378;2022-07-10T03:11:19;98359.66;;;10.92;100.00
5872;BME280;2962;51.312;7.378;2022-07-10T03:13:44;98352.38;;;10.96;100.00
5872;BME280;2962;51.312;7.378;2022-07-10T03:16:09;98366.22;;;10.91;100.00
5872;BME280;2962;51.312;7.378;2022-07-10T03:18:35;98355.94;;;10.85;100.00
5872;BME280;2962;51.312;7.378;2022-07-10T03:21:00;98357.63;;;10.89;100.00
5872;BME280;2962;51.312;7.378;2022-07-10T03:23:25;98360.50;;;10.81;100.00
5872;BME280;2962;51.312;7.378;2022-07-10T03:25:51;98360.84;;;10.79;100.00
5872;BME280;2962;51.312;7.378;2022-07-10T03:28:16;98363.13;;;10.77;100.00
5872;BME280;2962;51.312;7.378;2022-07-10T03:30:41;98357.78;;;10.81;100.00
5872;BME280;2962;51.312;7.378;2022-07-10T03:33:06;98355.38;;;10.79;100.00
5872;BME280;2962;51.312;7.378;2022-07-10T03:35:33;98353.53;;;10.83;100.00
5872;BME280;2962;51.312;7.378;2022-07-10T03:37:58;98363.97;;;10.93;100.00
5872;BME280;2962;51.312;7.378;2022-07-10T03:40:23;98367.72;;;10.89;100.00
5872;BME280;2962;51.312;7.378;2022-07-10T03:42:49;98358.69;;;11.00;100.00
5872;BME280;2962;51.312;7.378;2022-07-10T03:45:14;98359.94;;;11.03;100.00
5872;BME280;2962;51.312;7.378;2022-07-10T03:47:39;98356.31;;;10.99;100.00
5872;BME280;2962;51.312;7.378;2022-07-10T03:50:05;98357.34;;;10.94;100.00
5872;BME280;2962;51.312;7.378;2022-07-10T03:52:30;98350.31;;;10.93;100.00
5872;BME280;2962;51.312;7.378;2022-07-10T03:54:56;98365.84;;;11.05;100.00
5872;BME280;2962;51.312;7.378;2022-07-10T03:57:21;98354.22;;;11.08;100.00
5872;BME280;2962;51.312;7.378;2022-07-10T04:00:06;98364.75;;;10.94;100.00
5872;BME280;2962;51.312;7.378;2022-07-10T04:02:31;98357.81;;;10.96;100.00
5872;BME280;2962;51.312;7.378;2022-07-10T04:04:56;98364.16;;;11.00;100.00
5872;BME280;2962;51.312;7.378;2022-07-10T04:07:22;98357.13;;;10.99;100.00
5872;BME280;2962;51.312;7.378;2022-07-10T04:09:47;98361.53;;;11.04;100.00
5872;BME280;2962;51.312;7.378;2022-07-10T04:12:12;98358.44;;;11.06;100.00
5872;BME280;2962;51.312;7.378;2022-07-10T04:14:37;98368.59;;;11.21;100.00
5872;BME280;2962;51.312;7.378;2022-07-10T04:17:03;98368.69;;;11.24;100.00
5872;BME280;2962;51.312;7.378;2022-07-10T04:19:28;98372.56;;;11.23;100.00
5872;BME280;2962;51.312;7.378;2022-07-10T04:21:54;98372.28;;;11.29;100.00
5872;BME280;2962;51.312;7.378;2022-07-10T04:24:19;98378.31;;;11.34;100.00
5872;BME280;2962;51.312;7.378;2022-07-10T04:26:44;98375.91;;;11.33;100.00
5872;BME280;2962;51.312;7.378;2022-07-10T04:29:09;98375.13;;;11.32;100.00
5872;BME280;2962;51.312;7.378;2022-07-10T04:31:35;98377.06;;;11.32;100.00
5872;BME280;2962;51.312;7.378;2022-07-10T04:34:00;98366.84;;;11.29;100.00
5872;BME280;2962;51.312;7.378;2022-07-10T04:36:26;98369.84;;;11.39;100.00
5872;BME280;2962;51.312;7.378;2022-07-10T04:38:51;98372.66;;;11.43;100.00
5872;BME280;2962;51.312;7.378;2022-07-10T04:41:16;98363.69;;;11.42;100.00
5872;BME280;2962;51.312;7.378;2022-07-10T04:43:42;98366.41;;;11.42;100.00
5872;BME280;2962;51.312;7.378;2022-07-10T04:46:07;98368.28;;;11.38;100.00
5872;BME280;2962;51.312;7.378;2022-07-10T04:48:32;98373.81;;;11.42;100.00
5872;BME280;2962;51.312;7.378;2022-07-10T04:50:58;98376.47;;;11.38;100.00
5872;BME280;2962;51.312;7.378;2022-07-10T04:53:23;98369.16;;;11.42;100.00
5872;BME280;2962;51.312;7.378;2022-07-10T04:55:48;98370.22;;;11.54;100.00
5872;BME280;2962;51.312;7.378;2022-07-10T04:58:14;98371.88;;;11.58;100.00
5872;BME280;2962;51.312;7.378;2022-07-10T05:00:39;98368.69;;;11.56;100.00
5872;BME280;2962;51.312;7.378;2022-07-10T05:03:04;98375.78;;;11.57;100.00
5872;BME280;2962;51.312;7.378;2022-07-10T05:05:30;98368.78;;;11.60;100.00
5872;BME280;2962;51.312;7.378;2022-07-10T05:07:55;98372.16;;;11.53;100.00
5872;BME280;2962;51.312;7.378;2022-07-10T05:10:20;98376.66;;;11.61;100.00
5872;BME280;2962;51.312;7.378;2022-07-10T05:12:46;98380.84;;;11.59;100.00
5872;BME280;2962;51.312;7.378;2022-07-10T05:15:11;98379.38;;;11.61;100.00
5872;BME280;2962;51.312;7.378;2022-07-10T05:17:36;98381.47;;;11.68;100.00
5872;BME280;2962;51.312;7.378;2022-07-10T05:20:02;98379.97;;;11.70;100.00
5872;BME280;2962;51.312;7.378;2022-07-10T05:22:27;98389.13;;;11.78;100.00
5872;BME280;2962;51.312;7.378;2022-07-10T05:24:55;98389.41;;;11.73;100.00
5872;BME280;2962;51.312;7.378;2022-07-10T05:27:21;98392.66;;;11.79;100.00
5872;BME280;2962;51.312;7.378;2022-07-10T05:29:46;98375.06;;;11.76;100.00
5872;BME280;2962;51.312;7.378;2022-07-10T05:32:12;98392.16;;;11.89;100.00
5872;BME280;2962;51.312;7.378;2022-07-10T05:34:37;98392.41;;;11.84;100.00
5872;BME280;2962;51.312;7.378;2022-07-10T05:37:03;98391.50;;;11.80;100.00
5872;BME280;2962;51.312;7.378;2022-07-10T05:39:28;98396.44;;;11.74;100.00
5872;BME280;2962;51.312;7.378;2022-07-10T05:41:54;98397.97;;;11.87;100.00
5872;BME280;2962;51.312;7.378;2022-07-10T05:44:21;98392.59;;;11.91;100.00
5872;BME280;2962;51.312;7.378;2022-07-10T05:46:46;98394.19;;;11.92;100.00
5872;BME280;2962;51.312;7.378;2022-07-10T05:49:12;98396.94;;;11.92;100.00
5872;BME280;2962;51.312;7.378;2022-07-10T05:51:37;98386.22;;;12.03;100.00
5872;BME280;2962;51.312;7.378;2022-07-10T05:54:02;98387.34;;;12.17;100.00
5872;BME280;2962;51.312;7.378;2022-07-10T05:56:28;98389.13;;;12.10;100.00
5872;BME280;2962;51.312;7.378;2022-07-10T05:58:54;98392.69;;;12.30;100.00
5872;BME280;2962;51.312;7.378;2022-07-10T06:01:21;98392.00;;;12.33;100.00
5872;BME280;2962;51.312;7.378;2022-07-10T06:03:46;98397.03;;;12.31;100.00
5872;BME280;2962;51.312;7.378;2022-07-10T06:06:12;98386.59;;;12.36;100.00
5872;BME280;2962;51.312;7.378;2022-07-10T06:08:40;98375.84;;;12.43;100.00
5872;BME280;2962;51.312;7.378;2022-07-10T06:11:05;98385.34;;;12.50;100.00
5872;BME280;2962;51.312;7.378;2022-07-10T06:13:31;98394.69;;;12.68;100.00
5872;BME280;2962;51.312;7.378;2022-07-10T06:15:56;98397.66;;;12.59;100.00
5872;BME280;2962;51.312;7.378;2022-07-10T06:18:21;98392.41;;;12.70;100.00
5872;BME280;2962;51.312;7.378;2022-07-10T06:20:47;98394.56;;;12.61;100.00
5872;BME280;2962;51.312;7.378;2022-07-10T06:23:12;98394.28;;;12.66;100.00
5872;BME280;2962;51.312;7.378;2022-07-10T06:25:37;98395.22;;;12.74;100.00
5872;BME280;2962;51.312;7.378;2022-07-10T06:28:02;98394.13;;;12.78;100.00
5872;BME280;2962;51.312;7.378;2022-07-10T06:30:28;98388.81;;;13.05;100.00
5872;BME280;2962;51.312;7.378;2022-07-10T06:32:53;98391.91;;;13.23;100.00
5872;BME280;2962;51.312;7.378;2022-07-10T06:35:18;98380.81;;;13.15;100.00
5872;BME280;2962;51.312;7.378;2022-07-10T06:37:44;98372.78;;;13.46;100.00
5872;BME280;2962;51.312;7.378;2022-07-10T06:40:12;98385.66;;;13.45;100.00
5872;BME280;2962;51.312;7.378;2022-07-10T06:42:38;98379.94;;;13.31;100.00
5872;BME280;2962;51.312;7.378;2022-07-10T06:45:03;98381.66;;;13.39;100.00
5872;BME280;2962;51.312;7.378;2022-07-10T06:47:28;98384.94;;;13.48;100.00
5872;BME280;2962;51.312;7.378;2022-07-10T06:50:12;98390.28;;;13.41;100.00
5872;BME280;2962;51.312;7.378;2022-07-10T06:52:38;98396.94;;;13.01;100.00
5872;BME280;2962;51.312;7.378;2022-07-10T06:55:04;98390.28;;;13.22;100.00
5872;BME280;2962;51.312;7.378;2022-07-10T06:57:29;98391.56;;;13.24;100.00
5872;BME280;2962;51.312;7.378;2022-07-10T06:59:55;98378.16;;;13.19;100.00
5872;BME280;2962;51.312;7.378;2022-07-10T07:02:20;98383.47;;;13.31;100.00
5872;BME280;2962;51.312;7.378;2022-07-10T07:04:46;98382.03;;;13.60;100.00
5872;BME280;2962;51.312;7.378;2022-07-10T07:07:12;98373.47;;;13.62;100.00
5872;BME280;2962;51.312;7.378;2022-07-10T07:09:37;98382.38;;;13.82;100.00
5872;BME280;2962;51.312;7.378;2022-07-10T07:12:03;98373.72;;;13.80;100.00
5872;BME280;2962;51.312;7.378;2022-07-10T07:14:29;98384.59;;;13.73;100.00
5872;BME280;2962;51.312;7.378;2022-07-10T07:16:54;98384.41;;;13.62;100.00
5872;BME280;2962;51.312;7.378;2022-07-10T07:19:29;98382.88;;;13.41;100.00
5872;BME280;2962;51.312;7.378;2022-07-10T07:22:19;98381.47;;;13.09;100.00
5872;BME280;2962;51.312;7.378;2022-07-10T07:25:03;98378.31;;;13.07;100.00
5872;BME280;2962;51.312;7.378;2022-07-10T07:27:28;98371.91;;;13.22;100.00
5872;BME280;2962;51.312;7.378;2022-07-10T07:29:54;98380.50;;;13.40;100.00
5872;BME280;2962;51.312;7.378;2022-07-10T07:32:19;98371.50;;;13.39;100.00
5872;BME280;2962;51.312;7.378;2022-07-10T07:34:44;98377.03;;;13.43;100.00
5872;BME280;2962;51.312;7.378;2022-07-10T07:37:10;98375.63;;;13.53;100.00
5872;BME280;2962;51.312;7.378;2022-07-10T07:39:35;98368.31;;;13.37;100.00
5872;BME280;2962;51.312;7.378;2022-07-10T07:42:02;98339.19;;;13.26;100.00
5872;BME280;2962;51.312;7.378;2022-07-10T07:44:27;98378.16;;;13.61;100.00
5872;BME280;2962;51.312;7.378;2022-07-10T07:46:52;98380.03;;;13.57;100.00
5872;BME280;2962;51.312;7.378;2022-07-10T07:49:17;98375.47;;;13.42;100.00
5872;BME280;2962;51.312;7.378;2022-07-10T07:51:43;98387.06;;;13.35;100.00
5872;BME280;2962;51.312;7.378;2022-07-10T07:54:08;98387.13;;;13.19;100.00
5872;BME280;2962;51.312;7.378;2022-07-10T07:56:33;98392.41;;;13.09;100.00
5872;BME280;2962;51.312;7.378;2022-07-10T07:58:59;98376.88;;;12.93;100.00
5872;BME280;2962;51.312;7.378;2022-07-10T08:01:24;98389.59;;;12.86;100.00
5872;BME280;2962;51.312;7.378;2022-07-10T08:03:50;98397.34;;;12.64;100.00
5872;BME280;2962;51.312;7.378;2022-07-10T08:06:15;98398.81;;;12.58;100.00
5872;BME280;2962;51.312;7.378;2022-07-10T08:08:40;98399.59;;;12.59;100.00
5872;BME280;2962;51.312;7.378;2022-07-10T08:11:05;98412.59;;;12.46;100.00
5872;BME280;2962;51.312;7.378;2022-07-10T08:13:31;98399.50;;;12.36;100.00
5872;BME280;2962;51.312;7.378;2022-07-10T08:15:57;98412.97;;;12.29;100.00
5872;BME280;2962;51.312;7.378;2022-07-10T08:18:23;98413.88;;;12.17;100.00
5872;BME280;2962;51.312;7.378;2022-07-10T08:20:48;98419.34;;;12.17;100.00
5872;BME280;2962;51.312;7.378;2022-07-10T08:23:13;98416.34;;;12.22;100.00
5872;BME280;2962;51.312;7.378;2022-07-10T08:25:38;98417.25;;;12.26;100.00
5872;BME280;2962;51.312;7.378;2022-07-10T08:28:05;98422.38;;;12.12;100.00
5872;BME280;2962;51.312;7.378;2022-07-10T08:30:31;98408.94;;;12.07;100.00
5872;BME280;2962;51.312;7.378;2022-07-10T08:32:56;98410.38;;;12.01;100.00
5872;BME280;2962;51.312;7.378;2022-07-10T08:35:22;98416.47;;;11.94;100.00
5872;BME280;2962;51.312;7.378;2022-07-10T08:37:47;98415.94;;;11.88;100.00
5872;BME280;2962;51.312;7.378;2022-07-10T08:40:14;98415.59;;;11.90;100.00
5872;BME280;2962;51.312;7.378;2022-07-10T08:42:43;98416.44;;;11.78;100.00
5872;BME280;2962;51.312;7.378;2022-07-10T08:45:11;98433.19;;;11.77;100.00
5872;BME280;2962;51.312;7.378;2022-07-10T08:47:37;98430.69;;;11.71;100.00
5872;BME280;2962;51.312;7.378;2022-07-10T08:50:16;98431.84;;;11.70;100.00
5872;BME280;2962;51.312;7.378;2022-07-10T08:52:43;98437.75;;;11.72;100.00
5872;BME280;2962;51.312;7.378;2022-07-10T08:55:14;98435.41;;;11.87;100.00
5872;BME280;2962;51.312;7.378;2022-07-10T08:57:40;98427.84;;;11.96;100.00
5872;BME280;2962;51.312;7.378;2022-07-10T09:00:08;98415.06;;;12.00;100.00
5872;BME280;2962;51.312;7.378;2022-07-10T09:02:34;98432.75;;;12.06;100.00
5872;BME280;2962;51.312;7.378;2022-07-10T09:04:59;98434.16;;;12.16;100.00
5872;BME280;2962;51.312;7.378;2022-07-10T09:07:34;98433.22;;;12.43;100.00
5872;BME280;2962;51.312;7.378;2022-07-10T09:10:05;98424.75;;;12.49;100.00
5872;BME280;2962;51.312;7.378;2022-07-10T09:12:48;98425.25;;;12.35;100.00
5872;BME280;2962;51.312;7.378;2022-07-10T09:15:17;98422.13;;;12.36;100.00
5872;BME280;2962;51.312;7.378;2022-07-10T09:18:09;98434.50;;;12.30;100.00
5872;BME280;2962;51.312;7.378;2022-07-10T09:20:36;98424.91;;;12.20;100.00
5872;BME280;2962;51.312;7.378;2022-07-10T09:23:21;98434.06;;;12.28;100.00
5872;BME280;2962;51.312;7.378;2022-07-10T09:25:49;98433.56;;;12.23;100.00
5872;BME280;2962;51.312;7.378;2022-07-10T09:28:17;98425.44;;;12.10;100.00
5872;BME280;2962;51.312;7.378;2022-07-10T09:30:43;98432.03;;;12.25;100.00
5872;BME280;2962;51.312;7.378;2022-07-10T09:33:25;98431.25;;;12.25;100.00
5872;BME280;2962;51.312;7.378;2022-07-10T09:36:08;98441.72;;;12.38;100.00
5872;BME280;2962;51.312;7.378;2022-07-10T09:41:30;98447.75;;;12.12;100.00
5872;BME280;2962;51.312;7.378;2022-07-10T09:44:00;98447.38;;;11.98;100.00
5872;BME280;2962;51.312;7.378;2022-07-10T09:46:32;98448.00;;;12.07;100.00
5872;BME280;2962;51.312;7.378;2022-07-10T09:49:10;98447.13;;;12.03;100.00
5872;BME280;2962;51.312;7.378;2022-07-10T09:51:38;98442.88;;;12.06;100.00
5872;BME280;2962;51.312;7.378;2022-07-10T09:54:06;98436.28;;;12.23;100.00
5872;BME280;2962;51.312;7.378;2022-07-10T09:56:40;98437.94;;;12.27;100.00
5872;BME280;2962;51.312;7.378;2022-07-10T09:59:12;98435.13;;;12.24;100.00
5872;BME280;2962;51.312;7.378;2022-07-10T10:02:01;98438.31;;;12.10;100.00
5872;BME280;2962;51.312;7.378;2022-07-10T10:04:26;98427.91;;;12.15;100.00
5872;BME280;2962;51.312;7.378;2022-07-10T10:06:58;98436.97;;;12.35;100.00
5872;BME280;2962;51.312;7.378;2022-07-10T10:09:40;98431.16;;;12.56;100.00
5872;BME280;2962;51.312;7.378;2022-07-10T10:12:16;98431.28;;;12.44;100.00
5872;BME280;2962;51.312;7.378;2022-07-10T10:14:41;98429.72;;;12.43;100.00
5872;BME280;2962;51.312;7.378;2022-07-10T10:17:07;98428.50;;;12.25;100.00
5872;BME280;2962;51.312;7.378;2022-07-10T10:19:33;98432.31;;;12.55;100.00
5872;BME280;2962;51.312;7.378;2022-07-10T10:22:18;98422.50;;;12.70;100.00
5872;BME280;2962;51.312;7.378;2022-07-10T10:24:44;98425.91;;;12.48;100.00
5872;BME280;2962;51.312;7.378;2022-07-10T10:27:10;98429.25;;;12.41;100.00
5872;BME280;2962;51.312;7.378;2022-07-10T10:29:37;98431.53;;;12.55;100.00
5872;BME280;2962;51.312;7.378;2022-07-10T10:32:04;98433.91;;;12.56;100.00
5872;BME280;2962;51.312;7.378;2022-07-10T10:34:43;98440.69;;;12.62;100.00
5872;BME280;2962;51.312;7.378;2022-07-10T10:39:52;98430.78;;;12.74;100.00
5872;BME280;2962;51.312;7.378;2022-07-10T10:42:41;98427.53;;;12.87;100.00
5872;BME280;2962;51.312;7.378;2022-07-10T10:48:01;98425.00;;;12.59;100.00
5872;BME280;2962;51.312;7.378;2022-07-10T10:53:17;98431.78;;;12.30;100.00
5872;BME280;2962;51.312;7.378;2022-07-10T10:58:28;98423.28;;;12.35;100.00
5872;BME280;2962;51.312;7.378;2022-07-10T11:01:24;98413.94;;;12.36;100.00
5872;BME280;2962;51.312;7.378;2022-07-10T11:04:12;98420.50;;;12.51;100.00
5872;BME280;2962;51.312;7.378;2022-07-10T11:09:28;98415.53;;;12.73;100.00
5872;BME280;2962;51.312;7.378;2022-07-10T11:12:12;98422.25;;;12.59;100.00
5872;BME280;2962;51.312;7.378;2022-07-10T11:14:39;98427.38;;;12.61;100.00
5872;BME280;2962;51.312;7.378;2022-07-10T11:17:05;98425.78;;;12.60;100.00
5872;BME280;2962;51.312;7.378;2022-07-10T11:19:31;98425.53;;;12.49;100.00
5872;BME280;2962;51.312;7.378;2022-07-10T11:27:56;98418.53;;;12.87;100.00
5872;BME280;2962;51.312;7.378;2022-07-10T11:30:23;98414.78;;;12.95;100.00
5872;BME280;2962;51.312;7.378;2022-07-10T11:32:49;98418.13;;;13.04;100.00
5872;BME280;2962;51.312;7.378;2022-07-10T11:35:16;98415.53;;;13.11;100.00
5872;BME280;2962;51.312;7.378;2022-07-10T11:37:53;98410.31;;;13.06;100.00
5872;BME280;2962;51.312;7.378;2022-07-10T11:40:19;98412.66;;;13.04;100.00
5872;BME280;2962;51.312;7.378;2022-07-10T11:42:55;98409.38;;;12.99;100.00
5872;BME280;2962;51.312;7.378;2022-07-10T11:45:27;98404.06;;;13.06;100.00
5872;BME280;2962;51.312;7.378;2022-07-10T11:47:54;98408.31;;;13.23;100.00
5872;BME280;2962;51.312;7.378;2022-07-10T11:50:19;98401.47;;;13.32;100.00
5872;BME280;2962;51.312;7.378;2022-07-10T11:52:45;98402.84;;;13.42;100.00
5872;BME280;2962;51.312;7.378;2022-07-10T11:55:29;98409.03;;;13.19;100.00
5872;BME280;2962;51.312;7.378;2022-07-10T11:57:56;98403.56;;;13.19;100.00
5872;BME280;2962;51.312;7.378;2022-07-10T12:00:28;98392.34;;;13.25;100.00
5872;BME280;2962;51.312;7.378;2022-07-10T12:02:55;98400.94;;;13.23;100.00
5872;BME280;2962;51.312;7.378;2022-07-10T12:05:39;98394.97;;;13.21;100.00
5872;BME280;2962;51.312;7.378;2022-07-10T12:08:04;98399.97;;;13.35;100.00
5872;BME280;2962;51.312;7.378;2022-07-10T12:10:31;98402.41;;;13.63;100.00
5872;BME280;2962;51.312;7.378;2022-07-10T12:13:08;98400.28;;;13.76;100.00
5872;BME280;2962;51.312;7.378;2022-07-10T12:15:37;98394.13;;;13.59;100.00
5872;BME280;2962;51.312;7.378;2022-07-10T12:18:06;98395.69;;;13.57;100.00
5872;BME280;2962;51.312;7.378;2022-07-10T12:20:32;98398.81;;;13.59;100.00
5872;BME280;2962;51.312;7.378;2022-07-10T12:22:58;98388.00;;;13.43;100.00
5872;BME280;2962;51.312;7.378;2022-07-10T12:25:24;98390.84;;;13.50;100.00
5872;BME280;2962;51.312;7.378;2022-07-10T12:27:55;98396.16;;;13.62;100.00
5872;BME280;2962;51.312;7.378;2022-07-10T12:30:22;98383.44;;;13.74;100.00
5872;BME280;2962;51.312;7.378;2022-07-10T12:32:47;98395.84;;;13.67;100.00
5872;BME280;2962;51.312;7.378;2022-07-10T12:35:13;98393.66;;;13.54;100.00
5872;BME280;2962;51.312;7.378;2022-07-10T12:37:50;98390.72;;;13.43;100.00
5872;BME280;2962;51.312;7.378;2022-07-10T12:40:32;98398.50;;;13.41;100.00
5872;BME280;2962;51.312;7.378;2022-07-10T12:43:05;98388.09;;;13.08;100.00
5872;BME280;2962;51.312;7.378;2022-07-10T12:45:31;98389.66;;;13.09;100.00
5872;BME280;2962;51.312;7.378;2022-07-10T12:47:57;98387.84;;;13.16;100.00
5872;BME280;2962;51.312;7.378;2022-07-10T12:50:23;98406.22;;;13.35;100.00
5872;BME280;2962;51.312;7.378;2022-07-10T12:53:09;98397.31;;;13.19;100.00
5872;BME280;2962;51.312;7.378;2022-07-10T12:55:38;98401.16;;;13.18;100.00
5872;BME280;2962;51.312;7.378;2022-07-10T12:58:10;98411.63;;;13.32;100.00
5872;BME280;2962;51.312;7.378;2022-07-10T13:00:46;98409.81;;;13.20;100.00
5872;BME280;2962;51.312;7.378;2022-07-10T13:03:19;98410.97;;;13.19;100.00
5872;BME280;2962;51.312;7.378;2022-07-10T13:05:47;98410.19;;;13.18;100.00
5872;BME280;2962;51.312;7.378;2022-07-10T13:08:13;98413.66;;;13.15;100.00
5872;BME280;2962;51.312;7.378;2022-07-10T13:10:46;98394.66;;;13.03;100.00
5872;BME280;2962;51.312;7.378;2022-07-10T13:13:12;98398.31;;;13.30;100.00
5872;BME280;2962;51.312;7.378;2022-07-10T13:15:38;98404.31;;;13.82;100.00
5872;BME280;2962;51.312;7.378;2022-07-10T13:18:14;98413.06;;;13.91;100.00
5872;BME280;2962;51.312;7.378;2022-07-10T13:20:40;98395.53;;;13.96;100.00
5872;BME280;2962;51.312;7.378;2022-07-10T13:23:05;98399.47;;;13.98;100.00
5872;BME280;2962;51.312;7.378;2022-07-10T13:25:31;98397.09;;;13.97;100.00
5872;BME280;2962;51.312;7.378;2022-07-10T13:27:57;98394.50;;;13.81;100.00
5872;BME280;2962;51.312;7.378;2022-07-10T13:30:22;98397.13;;;13.74;100.00
5872;BME280;2962;51.312;7.378;2022-07-10T13:32:47;98392.69;;;13.65;100.00
5872;BME280;2962;51.312;7.378;2022-07-10T13:35:13;98397.38;;;13.65;100.00